Terminal Aerodrome Forecast
Issued by NWS

Home | Current Version | Previous Version | Text Only | Print | Product List | Glossary On
Versions: 1 2 3 4 5 6 7 8 9 10 11 12 13 14 15 16 17 18 19 20 21 22 23 24 25 26 27 28 29 30 31 32 33 34 35 36 37 38 39 40 41 42 43 44 45 46 47 48 49 50
000
FTUS45 KBOU 250304 AAB
TAFAPA
TAF AMD
KAPA 250304Z 2503/2524 33006KT P6SM SCT040 BKN070
      TEMPO 2503/2506 -SHRA BKN040 OVC050
     FM250700 25007KT P6SM SCT030 BKN040
     FM251400 VRB05KT P6SM SCT030 BKN050
      TEMPO 2514/2518 -SHRA BKN030 OVC060
     FM251900 07008KT P6SM SCT040 BKN070
      TEMPO 2520/2524 5SM -TSRA BKN030CB=

USA.gov is the U.S. government's official web portal to all federal, state and local government web resources and services.